Monterey (MRY/KMRY)

Map

Destinations

Information

Location
Monterey, CA
Local Time
21:28 / 9:28 pm
GMT Time
05:28 / 5:28 am
Gates
Unassigned
No FAA reported delays
METAR KMRY 260454Z 10005KT 10SM OVC095 09/04 A3003 RMK AO2 SLP181 T00890039
TAF KMRY 252340Z 2600/2624 30007KT P6SM VCSH FEW020 BKN050 OVC120 FM260400 10003KT P6SM -SHRA FEW020 BKN040 OVC100 FM260900 09003KT P6SM FEW030 SCT060 BKN180 FM261300 09003KT P6SM BKN220 FM261700 28006KT P6SM SCT050
  • No charts available